Lakeview, Oregon
Current Conditions -  °F | °C
As of 7:55 AM on Saturday 25 Oct 2014 (Local Time) from KLKV Reporting Station
Few Clouds Few Clouds  
Wind Chill: 52°   Ceiling: Unl
Heat Index: 52°   Visibility: 9mi
Dew Point: 30°   Wind: 26mph
Humidity: 44%   Direction: 170°S
Pressure: 29.78"   Gusts: 39mph
Location:  42.19°N, 120.35°W
Report Text: KLKV 251455Z AUTO 17023G34KT 9SM FEW007 11/M01 A2978 RMK AO1 57010
Loading
Personal Weather Stations






























Interactive Weather Map New forecast layout! Learn more

10-Day Weather Forecast

Advertisements
Track Severe Weather on mobile